createdAt,value
2022-12-22T00:00:15.779Z,4.93
2022-12-22T00:03:03.063Z,5.43
2022-12-22T00:05:49.999Z,5.53
2022-12-22T00:08:37.296Z,4.60
2022-12-22T00:11:28.545Z,8.00
2022-12-22T00:14:15.179Z,8.73
2022-12-22T00:17:03.061Z,5.40
2022-12-22T00:19:50.300Z,6.53
2022-12-22T00:22:44.750Z,6.27
2022-12-22T00:25:36.732Z,5.63
2022-12-22T00:28:29.648Z,7.40
2022-12-22T00:31:16.530Z,5.67
2022-12-22T00:34:03.174Z,7.00
2022-12-22T00:36:50.094Z,5.93
2022-12-22T00:39:37.310Z,6.20
2022-12-22T00:42:24.653Z,7.27
2022-12-22T00:45:11.444Z,5.40
2022-12-22T00:47:58.172Z,5.87
2022-12-22T00:50:49.003Z,4.43
2022-12-22T00:53:36.718Z,3.83
2022-12-22T00:56:24.187Z,4.47
2022-12-22T00:59:11.814Z,4.53
2022-12-22T01:02:00.296Z,3.37
2022-12-22T01:04:47.550Z,5.37
2022-12-22T01:07:35.381Z,3.53
2022-12-22T01:10:23.054Z,4.70
2022-12-22T01:13:09.761Z,4.37
2022-12-22T01:15:56.938Z,3.47
2022-12-22T01:18:43.683Z,3.23
2022-12-22T01:21:31.910Z,4.77
2022-12-22T01:24:19.832Z,3.47
2022-12-22T01:27:07.129Z,5.73
2022-12-22T01:29:54.037Z,5.57
2022-12-22T01:32:40.673Z,5.23
2022-12-22T01:35:36.040Z,4.47
2022-12-22T01:38:22.613Z,4.90
2022-12-22T01:41:09.984Z,4.10
2022-12-22T01:43:57.196Z,4.07
2022-12-22T01:46:48.784Z,3.67
2022-12-22T01:49:45.878Z,3.13
2022-12-22T01:52:34.842Z,3.40
2022-12-22T01:55:25.693Z,3.90
2022-12-22T01:58:14.797Z,3.77
2022-12-22T02:01:01.925Z,4.23
2022-12-22T02:03:48.867Z,4.10
2022-12-22T02:06:41.594Z,3.47
2022-12-22T02:10:01.369Z,4.77
2022-12-22T02:13:06.941Z,3.33
2022-12-22T02:16:45.642Z,3.03
2022-12-22T02:20:12.424Z,2.63
2022-12-22T02:23:04.358Z,4.07
2022-12-22T02:25:58.593Z,3.33
2022-12-22T02:28:45.332Z,3.40
2022-12-22T02:31:33.864Z,4.03
2022-12-22T02:34:20.837Z,2.20
2022-12-22T02:37:22.197Z,2.93
2022-12-22T02:40:23.924Z,2.83
2022-12-22T02:43:17.190Z,3.47
2022-12-22T02:46:22.822Z,4.03
2022-12-22T02:49:12.554Z,4.43
2022-12-22T02:52:05.413Z,3.37
2022-12-22T02:54:52.681Z,3.60
2022-12-22T02:57:40.011Z,5.30
2022-12-22T03:00:29.805Z,4.10
2022-12-22T03:03:16.572Z,5.00
2022-12-22T03:06:03.738Z,5.23
2022-12-22T03:08:50.562Z,4.17
2022-12-22T03:11:38.167Z,5.73
2022-12-22T03:14:24.945Z,5.13
2022-12-22T03:17:11.736Z,4.33
2022-12-22T03:19:58.367Z,4.47
2022-12-22T03:22:45.216Z,3.73
2022-12-22T03:25:32.898Z,5.53
2022-12-22T03:28:05.481Z,4.27
2022-12-22T03:30:33.911Z,3.20
2022-12-22T03:33:02.315Z,4.33
2022-12-22T03:35:30.687Z,3.77
2022-12-22T03:38:03.865Z,4.80
2022-12-22T03:40:32.385Z,4.10
2022-12-22T03:43:19.266Z,4.03
2022-12-22T03:46:06.276Z,3.13
2022-12-22T03:48:34.665Z,4.57
2022-12-22T03:51:03.067Z,4.07
2022-12-22T03:53:31.434Z,4.30
2022-12-22T03:56:05.690Z,4.87
2022-12-22T03:58:36.042Z,6.00
2022-12-22T04:01:07.927Z,4.43
2022-12-22T04:03:36.445Z,6.03
2022-12-22T04:06:06.076Z,5.97
2022-12-22T04:08:35.104Z,6.47
2022-12-22T04:11:21.812Z,5.40
2022-12-22T04:13:50.395Z,3.80
2022-12-22T04:16:18.914Z,5.67
2022-12-22T04:18:47.267Z,5.77
2022-12-22T04:21:16.727Z,5.30
2022-12-22T04:23:45.124Z,5.13
2022-12-22T04:26:13.966Z,4.40
2022-12-22T04:28:42.299Z,6.63
2022-12-22T04:31:10.748Z,5.10
2022-12-22T04:33:39.185Z,6.77
2022-12-22T04:36:08.076Z,5.47
2022-12-22T04:38:36.642Z,5.90
2022-12-22T04:41:05.534Z,6.20
2022-12-22T04:43:34.083Z,7.97
2022-12-22T04:46:02.551Z,4.40
2022-12-22T04:48:31.988Z,7.30
2022-12-22T04:51:00.734Z,6.13
2022-12-22T04:53:29.696Z,5.10
2022-12-22T04:56:04.980Z,5.03
2022-12-22T04:58:33.569Z,5.23
2022-12-22T05:01:10.040Z,6.30
2022-12-22T05:03:38.572Z,6.23
2022-12-22T05:06:08.314Z,5.43
2022-12-22T05:08:37.348Z,5.23
2022-12-22T05:11:06.638Z,4.23
2022-12-22T05:13:35.145Z,8.03
2022-12-22T05:16:08.277Z,7.17
2022-12-22T05:18:37.196Z,5.83
2022-12-22T05:21:13.468Z,5.90
2022-12-22T05:23:41.971Z,4.83
2022-12-22T05:26:10.460Z,5.83
2022-12-22T05:28:39.695Z,5.07
2022-12-22T05:31:09.955Z,5.23
2022-12-22T05:33:38.579Z,5.83
2022-12-22T05:36:07.385Z,5.80
2022-12-22T05:38:35.877Z,5.80
2022-12-22T05:41:04.951Z,5.57
2022-12-22T05:43:34.362Z,5.27
2022-12-22T05:46:10.347Z,5.37
2022-12-22T05:48:40.001Z,4.77
2022-12-22T05:51:09.128Z,4.57
2022-12-22T05:53:37.701Z,5.67
2022-12-22T05:56:07.096Z,5.43
2022-12-22T05:58:37.472Z,6.30
2022-12-22T06:01:06.122Z,5.33
2022-12-22T06:03:34.623Z,5.10
2022-12-22T06:06:03.243Z,5.50
2022-12-22T06:08:31.634Z,4.87
2022-12-22T06:11:00.120Z,4.37
2022-12-22T06:13:29.345Z,7.43
2022-12-22T06:15:57.943Z,6.57
2022-12-22T06:18:26.440Z,5.53
2022-12-22T06:20:56.026Z,6.53
2022-12-22T06:23:24.527Z,7.43
2022-12-22T06:26:00.280Z,5.67
2022-12-22T06:28:29.508Z,5.97
2022-12-22T06:30:57.937Z,4.83
2022-12-22T06:33:27.161Z,4.97
2022-12-22T06:35:59.088Z,6.80
2022-12-22T06:38:28.693Z,7.50
2022-12-22T06:40:59.470Z,7.33
2022-12-22T06:43:27.980Z,8.37
2022-12-22T06:45:56.617Z,6.67
2022-12-22T06:48:25.154Z,9.07
2022-12-22T06:50:59.303Z,9.17
2022-12-22T06:53:28.341Z,7.53
2022-12-22T06:55:56.788Z,7.50
2022-12-22T06:58:25.343Z,6.53
2022-12-22T07:00:56.922Z,7.63
2022-12-22T07:03:25.771Z,8.20
2022-12-22T07:05:54.325Z,9.57
2022-12-22T07:08:22.775Z,6.47
2022-12-22T07:11:01.606Z,8.27
2022-12-22T07:13:34.851Z,9.33
2022-12-22T07:16:04.150Z,10.37
2022-12-22T07:18:36.096Z,11.07
2022-12-22T07:21:07.080Z,11.33
2022-12-22T07:23:35.739Z,11.80
2022-12-22T07:26:05.047Z,11.73
2022-12-22T07:28:37.039Z,15.53
2022-12-22T07:31:05.956Z,14.83
2022-12-22T07:33:34.509Z,13.87
2022-12-22T07:36:10.728Z,14.30
2022-12-22T07:38:40.730Z,15.00
2022-12-22T07:41:28.491Z,16.77
2022-12-22T07:43:58.214Z,14.67
2022-12-22T07:46:30.512Z,18.07
2022-12-22T07:49:18.471Z,17.73
2022-12-22T07:51:47.027Z,19.63
2022-12-22T07:54:16.888Z,23.07
2022-12-22T07:56:46.470Z,23.13
2022-12-22T07:59:15.321Z,20.47
2022-12-22T08:01:45.784Z,18.97
2022-12-22T08:04:15.245Z,20.30
2022-12-22T08:06:44.369Z,20.10
2022-12-22T08:09:17.761Z,17.77
2022-12-22T08:11:49.292Z,17.27
2022-12-22T08:14:17.780Z,16.50
2022-12-22T08:16:46.211Z,17.77
2022-12-22T08:19:15.007Z,16.53
2022-12-22T08:21:50.307Z,16.83
2022-12-22T08:24:21.646Z,16.40
2022-12-22T08:26:51.801Z,15.53
2022-12-22T08:29:24.797Z,16.93
2022-12-22T08:31:53.237Z,18.30
2022-12-22T08:34:21.811Z,16.20
2022-12-22T08:36:52.556Z,19.03
2022-12-22T08:39:20.994Z,18.40
2022-12-22T08:41:52.841Z,19.10
2022-12-22T08:44:26.544Z,20.97
2022-12-22T08:46:56.091Z,20.70
2022-12-22T08:49:25.516Z,29.13
2022-12-22T08:51:55.001Z,26.30
2022-12-22T08:54:24.833Z,29.80
2022-12-22T08:56:53.535Z,34.00
2022-12-22T08:59:23.788Z,34.83
2022-12-22T09:01:53.605Z,38.80
2022-12-22T09:04:22.945Z,27.75
2022-12-22T09:06:55.556Z,25.63
2022-12-22T09:09:24.906Z,26.05
2022-12-22T09:11:53.462Z,51.53
2022-12-22T09:14:23.109Z,44.33
2022-12-22T09:16:52.209Z,29.50
2022-12-22T09:19:20.649Z,25.40
2022-12-22T09:21:49.693Z,53.78
2022-12-22T09:24:18.820Z,33.83
2022-12-22T09:26:47.214Z,37.92
2022-12-22T09:29:16.092Z,25.27
2022-12-22T09:31:44.612Z,24.92
2022-12-22T09:34:17.740Z,22.33
2022-12-22T09:36:47.962Z,21.02
2022-12-22T09:39:16.520Z,21.05
2022-12-22T09:41:55.823Z,20.77
2022-12-22T09:44:31.682Z,25.03
2022-12-22T09:47:02.898Z,26.03
2022-12-22T09:49:32.043Z,33.10
2022-12-22T09:52:01.478Z,27.83
2022-12-22T09:54:30.383Z,26.93
2022-12-22T09:56:59.378Z,27.67
2022-12-22T09:59:28.348Z,22.07
2022-12-22T10:02:27.716Z,21.53
2022-12-22T10:05:07.375Z,18.90
2022-12-22T10:07:39.958Z,21.43
2022-12-22T10:10:27.975Z,18.73
2022-12-22T10:12:58.476Z,17.57
2022-12-22T10:15:27.119Z,17.53
2022-12-22T10:18:09.704Z,18.83
2022-12-22T10:20:40.012Z,16.63
2022-12-22T10:23:19.454Z,17.20
2022-12-22T10:28:47.825Z,15.67
2022-12-22T10:31:22.559Z,15.63
2022-12-22T10:33:53.147Z,18.23
2022-12-22T10:36:25.472Z,22.63
2022-12-22T10:38:57.113Z,19.77
2022-12-22T10:41:27.776Z,16.70
2022-12-22T10:44:02.308Z,16.80
2022-12-22T10:46:37.803Z,18.70
2022-12-22T10:49:27.476Z,15.87
2022-12-22T10:52:29.522Z,17.20
2022-12-22T10:55:17.904Z,15.53
2022-12-22T10:57:46.928Z,13.77
2022-12-22T11:00:27.279Z,13.83
2022-12-22T11:03:01.381Z,17.47
2022-12-22T11:05:30.283Z,12.77
2022-12-22T11:08:06.171Z,13.77
2022-12-22T11:10:39.155Z,12.87
2022-12-22T11:13:24.904Z,11.23
2022-12-22T11:16:07.694Z,11.37
2022-12-22T11:18:59.526Z,12.10
2022-12-22T11:21:35.630Z,12.23
2022-12-22T11:24:22.080Z,12.87
2022-12-22T11:27:34.668Z,13.27
2022-12-22T11:30:09.173Z,12.43
2022-12-22T11:32:43.107Z,12.67
2022-12-22T11:35:41.171Z,14.13
2022-12-22T11:38:26.819Z,14.30
2022-12-22T11:41:01.458Z,14.40
2022-12-22T11:44:07.212Z,14.80
2022-12-22T11:46:38.261Z,14.30
2022-12-22T11:49:38.852Z,14.27
2022-12-22T11:52:22.337Z,14.30
2022-12-22T11:55:03.877Z,24.63
2022-12-22T11:58:02.473Z,17.67
2022-12-22T12:01:11.746Z,16.70
2022-12-22T12:03:59.154Z,17.83
2022-12-22T12:06:43.299Z,16.13
2022-12-22T12:09:28.129Z,21.97
2022-12-22T12:12:05.904Z,17.60
2022-12-22T12:15:00.999Z,18.50
2022-12-22T12:17:38.300Z,16.70
2022-12-22T12:20:15.756Z,17.77
2022-12-22T12:22:44.178Z,19.57
2022-12-22T12:25:26.705Z,21.13
2022-12-22T12:28:16.683Z,29.33
2022-12-22T12:31:06.535Z,22.60
2022-12-22T12:33:50.135Z,21.40
2022-12-22T12:36:25.039Z,22.33
2022-12-22T12:39:23.177Z,22.13
2022-12-22T12:42:06.209Z,21.87
2022-12-22T12:44:36.703Z,16.37
2022-12-22T12:47:30.505Z,20.27
2022-12-22T12:50:10.426Z,16.83
2022-12-22T12:52:39.551Z,14.63
2022-12-22T12:55:32.594Z,16.83
2022-12-22T12:58:03.625Z,17.13
2022-12-22T13:00:35.841Z,18.30
2022-12-22T13:04:02.363Z,19.30
2022-12-22T13:06:50.502Z,16.83
2022-12-22T13:09:49.997Z,18.10
2022-12-22T13:12:38.264Z,20.47
2022-12-22T13:15:36.156Z,18.97
2022-12-22T13:18:29.757Z,20.40
2022-12-22T13:21:42.100Z,20.53
2022-12-22T13:26:52.037Z,19.87
2022-12-22T13:29:25.594Z,21.27
2022-12-22T13:32:05.223Z,21.13
2022-12-22T13:35:42.987Z,19.20
2022-12-22T13:37:58.165Z,19.67
2022-12-22T13:40:28.894Z,18.50
2022-12-22T13:43:28.612Z,17.80
2022-12-22T13:45:58.833Z,18.63
2022-12-22T13:48:41.614Z,18.50
2022-12-22T13:51:22.145Z,17.53
2022-12-22T13:54:12.788Z,17.77
2022-12-22T13:56:51.327Z,18.30
2022-12-22T13:59:32.282Z,20.50
2022-12-22T14:02:15.549Z,21.43
2022-12-22T14:04:51.913Z,29.73
2022-12-22T14:07:22.388Z,25.17
2022-12-22T14:09:52.422Z,22.00
2022-12-22T14:12:25.578Z,24.57
2022-12-22T14:14:55.328Z,22.00
2022-12-22T14:17:27.647Z,23.47
2022-12-22T14:19:59.416Z,21.53
2022-12-22T14:22:39.171Z,20.13
2022-12-22T14:25:34.828Z,20.33
2022-12-22T14:28:03.208Z,20.00
2022-12-22T14:30:42.190Z,44.17
2022-12-22T14:33:28.684Z,21.00
2022-12-22T14:36:40.721Z,30.30
2022-12-22T14:39:10.167Z,33.37
2022-12-22T14:42:11.712Z,16.50
2022-12-22T14:44:44.744Z,13.73
2022-12-22T14:47:20.574Z,13.57
2022-12-22T14:49:51.289Z,13.20
2022-12-22T14:52:26.389Z,10.30
2022-12-22T14:54:54.822Z,7.37
2022-12-22T14:57:36.364Z,7.07
2022-12-22T15:00:24.477Z,7.67
2022-12-22T15:02:55.511Z,5.23
2022-12-22T15:05:36.536Z,6.23
2022-12-22T15:08:31.878Z,5.93
2022-12-22T15:11:03.244Z,5.50
2022-12-22T15:13:32.260Z,5.60
2022-12-22T15:16:00.708Z,5.73
2022-12-22T15:18:29.918Z,6.80
2022-12-22T15:20:58.349Z,7.40
2022-12-22T15:23:26.897Z,6.67
2022-12-22T15:25:55.387Z,5.10
2022-12-22T15:28:24.854Z,6.60
2022-12-22T15:30:53.416Z,5.87
2022-12-22T15:33:23.064Z,6.00
2022-12-22T15:35:51.543Z,7.03
2022-12-22T15:38:21.838Z,6.73
2022-12-22T15:40:51.364Z,7.70
2022-12-22T15:43:55.868Z,7.80
2022-12-22T15:46:08.388Z,8.70
2022-12-22T15:48:37.105Z,8.80
2022-12-22T15:51:07.688Z,10.10
2022-12-22T15:53:36.165Z,8.77
2022-12-22T15:56:04.848Z,7.50
2022-12-22T15:58:35.563Z,7.53
2022-12-22T16:01:04.290Z,6.50
2022-12-22T16:03:32.923Z,7.20
2022-12-22T16:06:01.383Z,6.83
2022-12-22T16:08:32.766Z,6.40
2022-12-22T16:11:01.420Z,6.87
2022-12-22T16:13:29.904Z,6.40
2022-12-22T16:15:58.614Z,6.13
2022-12-22T16:18:27.702Z,6.73
2022-12-22T16:20:56.172Z,6.13
2022-12-22T16:23:25.240Z,6.10
2022-12-22T16:26:00.943Z,6.63
2022-12-22T16:28:30.407Z,7.07
2022-12-22T16:31:00.017Z,6.20
2022-12-22T16:33:28.733Z,5.40
2022-12-22T16:35:57.220Z,6.10
2022-12-22T16:38:25.730Z,5.67
2022-12-22T16:40:54.518Z,5.47
2022-12-22T16:46:14.671Z,6.33
2022-12-22T16:48:50.725Z,6.57
2022-12-22T16:51:29.999Z,7.73
2022-12-22T16:53:59.958Z,8.53
2022-12-22T16:56:31.351Z,12.13
2022-12-22T16:59:01.791Z,6.27
2022-12-22T17:01:49.537Z,8.43
2022-12-22T17:04:19.681Z,8.03
2022-12-22T17:06:49.494Z,7.03
2022-12-22T17:09:23.695Z,9.73
2022-12-22T17:11:52.180Z,7.60
2022-12-22T17:14:35.487Z,6.40
2022-12-22T17:17:04.253Z,5.47
2022-12-22T17:19:33.424Z,5.97
2022-12-22T17:22:01.867Z,5.53
2022-12-22T17:24:30.766Z,5.63
2022-12-22T17:27:01.382Z,4.80
2022-12-22T17:29:31.359Z,5.67
2022-12-22T17:32:01.318Z,5.53
2022-12-22T17:34:29.806Z,6.13
2022-12-22T17:37:00.304Z,6.33
2022-12-22T17:39:28.832Z,5.70
2022-12-22T17:41:57.712Z,5.53
2022-12-22T17:44:28.104Z,5.27
2022-12-22T17:46:56.809Z,4.50
2022-12-22T17:49:25.671Z,4.50
2022-12-22T17:51:54.207Z,4.93
2022-12-22T17:54:26.366Z,3.63
2022-12-22T17:56:58.679Z,4.50
2022-12-22T17:59:27.524Z,3.93
2022-12-22T18:01:57.939Z,3.77
2022-12-22T18:04:26.379Z,5.13
2022-12-22T18:06:56.330Z,5.03
2022-12-22T18:09:26.354Z,4.53
2022-12-22T18:11:56.545Z,5.50
2022-12-22T18:14:25.055Z,5.43
2022-12-22T18:16:54.469Z,4.30
2022-12-22T18:19:22.951Z,4.53
2022-12-22T18:21:51.508Z,4.20
2022-12-22T18:24:19.909Z,4.77
2022-12-22T18:26:49.732Z,4.47
2022-12-22T18:29:18.326Z,5.17
2022-12-22T18:31:46.880Z,3.67
2022-12-22T18:34:17.614Z,3.90
2022-12-22T18:36:47.959Z,5.13
2022-12-22T18:39:19.919Z,3.80
2022-12-22T18:41:48.498Z,4.23
2022-12-22T18:44:19.340Z,3.63
2022-12-22T18:46:49.598Z,4.73
2022-12-22T18:49:18.113Z,4.83
2022-12-22T18:51:47.891Z,5.13
2022-12-22T18:54:38.747Z,7.03
2022-12-22T18:57:13.921Z,6.97
2022-12-22T18:59:43.166Z,6.57
2022-12-22T19:02:23.262Z,6.70
2022-12-22T19:04:51.983Z,4.30
2022-12-22T19:07:22.226Z,4.20
2022-12-22T19:09:51.062Z,4.03
2022-12-22T19:12:23.441Z,4.33
2022-12-22T19:14:53.179Z,4.33
2022-12-22T19:17:24.783Z,4.67
2022-12-22T19:19:53.344Z,3.83
2022-12-22T19:22:23.293Z,4.00
2022-12-22T19:24:51.958Z,4.17
2022-12-22T19:27:22.966Z,3.73
2022-12-22T19:29:58.858Z,4.27
2022-12-22T19:32:36.133Z,6.37
2022-12-22T19:35:13.664Z,5.93
2022-12-22T19:37:42.501Z,8.33
2022-12-22T19:40:13.327Z,3.90
2022-12-22T19:42:44.144Z,3.97
2022-12-22T19:45:39.610Z,3.47
2022-12-22T19:48:18.696Z,3.97
2022-12-22T19:50:47.671Z,3.73
2022-12-22T19:53:16.807Z,3.63
2022-12-22T19:55:53.401Z,3.50
2022-12-22T19:58:24.639Z,2.97
2022-12-22T20:00:53.578Z,3.20
2022-12-22T20:03:24.602Z,3.27
2022-12-22T20:05:53.595Z,5.17
2022-12-22T20:08:22.336Z,5.57
2022-12-22T20:10:58.459Z,4.90
2022-12-22T20:13:30.786Z,3.53
2022-12-22T20:15:59.359Z,3.50
2022-12-22T20:18:29.504Z,3.13
2022-12-22T20:21:11.368Z,3.07
2022-12-22T20:23:40.202Z,4.33
2022-12-22T20:26:13.516Z,5.77
2022-12-22T20:28:41.985Z,5.40
2022-12-22T20:31:14.019Z,4.57
2022-12-22T20:33:42.650Z,4.63
2022-12-22T20:36:24.123Z,5.93
2022-12-22T20:38:53.611Z,3.27
2022-12-22T20:41:22.754Z,3.93
2022-12-22T20:43:51.219Z,2.87
2022-12-22T20:46:29.377Z,3.80
2022-12-22T20:49:04.827Z,4.63
2022-12-22T20:51:33.915Z,3.77
2022-12-22T20:54:02.502Z,4.07
2022-12-22T20:56:35.422Z,9.27
2022-12-22T20:59:18.494Z,5.20
2022-12-22T21:01:47.431Z,4.37
2022-12-22T21:04:17.377Z,3.03
2022-12-22T21:06:56.337Z,3.77
2022-12-22T21:09:26.207Z,2.77
2022-12-22T21:11:54.597Z,3.20
2022-12-22T21:14:23.024Z,4.63
2022-12-22T21:16:52.028Z,5.80
2022-12-22T21:19:20.620Z,6.40
2022-12-22T21:21:49.007Z,6.70
2022-12-22T21:24:18.914Z,4.60
2022-12-22T21:26:49.280Z,4.37
2022-12-22T21:29:21.031Z,3.37
2022-12-22T21:31:49.778Z,3.83
2022-12-22T21:34:18.852Z,3.97
2022-12-22T21:36:49.762Z,3.33
2022-12-22T21:39:26.853Z,4.37
2022-12-22T21:42:01.550Z,4.40
2022-12-22T21:44:30.927Z,5.63
2022-12-22T21:46:59.735Z,4.17
2022-12-22T21:49:29.911Z,3.63
2022-12-22T21:51:59.573Z,3.53
2022-12-22T21:54:28.598Z,3.40
2022-12-22T21:56:56.958Z,3.77
2022-12-22T21:59:25.508Z,3.83
2022-12-22T22:01:54.172Z,3.77
2022-12-22T22:04:22.915Z,4.07
2022-12-22T22:06:51.975Z,4.40
2022-12-22T22:09:20.472Z,4.73
2022-12-22T22:12:07.372Z,4.80
2022-12-22T22:14:35.778Z,4.13
2022-12-22T22:17:04.869Z,4.20
2022-12-22T22:19:33.283Z,5.33
2022-12-22T22:22:01.657Z,7.33
2022-12-22T22:24:33.101Z,5.17
2022-12-22T22:27:01.457Z,5.47
2022-12-22T22:29:29.820Z,5.77
2022-12-22T22:31:58.233Z,5.17
2022-12-22T22:34:26.599Z,4.30
2022-12-22T22:36:55.015Z,5.10
2022-12-22T22:39:23.933Z,7.73
2022-12-22T22:41:52.740Z,8.27
2022-12-22T22:44:21.248Z,6.13
2022-12-22T22:46:49.742Z,6.40
2022-12-22T22:49:20.327Z,6.63
2022-12-22T22:51:53.343Z,6.03
2022-12-22T22:54:21.702Z,4.73
2022-12-22T22:56:50.226Z,5.07
2022-12-22T22:59:18.529Z,5.70
2022-12-22T23:01:46.946Z,4.63
2022-12-22T23:04:15.416Z,5.10
2022-12-22T23:06:44.611Z,5.63
2022-12-22T23:09:13.647Z,4.97
2022-12-22T23:11:43.284Z,7.97
2022-12-22T23:14:12.291Z,9.17
2022-12-22T23:16:40.727Z,8.10
2022-12-22T23:19:09.153Z,8.07
2022-12-22T23:21:37.590Z,7.33
2022-12-22T23:24:06.451Z,7.07
2022-12-22T23:26:34.840Z,7.23
2022-12-22T23:29:04.192Z,4.47
2022-12-22T23:31:33.411Z,4.17
2022-12-22T23:34:02.639Z,4.37
2022-12-22T23:36:31.117Z,4.17
2022-12-22T23:38:59.537Z,4.37
2022-12-22T23:41:28.204Z,4.07
2022-12-22T23:43:56.661Z,4.23
2022-12-22T23:46:25.144Z,4.27
2022-12-22T23:48:56.668Z,4.57
2022-12-22T23:51:27.544Z,5.27
2022-12-22T23:53:56.699Z,5.00
2022-12-22T23:56:25.638Z,5.10
2022-12-22T23:58:55.095Z,5.93
